Nijkerk, Netherlands
Current Conditions -  °F | °C
As of 11:55 AM on Wednesday 26 Nov 2014 (Local Time) from EHDL Reporting Station
Few Clouds Few Clouds  
Wind Chill: 34°   Ceiling: Unl
Heat Index: 41°   Visibility: 6mi
Dew Point: 36°   Wind: 13mph
Humidity: 81%   Direction: 110°ESE
Pressure: 29.97"   Gusts: NA
Location:  52.22°N, 5.49°E
Report Text: EHDL 261055Z AUTO 11011KT 9999 FEW100 05/02 Q1015 BLU
Loading
Personal Weather Stations






























Interactive Weather Map New forecast layout! Learn more

10-Day Weather Forecast

Advertisements
Track Severe Weather on mobile